Time;durP1;ratioP1;P1;durP2;ratioP2;P2;SDS_P1;SDS_P2;PMS_P1;PMS_P2;Temp;Humidity;BMP_temperature;BMP_pressure;BME280_temperature;BME280_humidity;BME280_pressure;Samples;Min_cycle;Max_cycle;Signal;HPM_P1;HPM_P2
2021/04/11 00:00:16;;;;;;;60.15;37.00;;;7.40;99.90;;;;;;5087886;28;20119;-48
2021/04/11 00:02:42;;;;;;;54.90;36.90;;;7.40;99.90;;;;;;5089439;28;20032;-49
2021/04/11 00:05:08;;;;;;;59.88;37.25;;;7.40;99.90;;;;;;5088814;28;20115;-51
2021/04/11 00:07:33;;;;;;;59.90;38.67;;;7.40;99.90;;;;;;5088083;28;20028;-51
2021/04/11 00:09:59;;;;;;;64.80;41.00;;;7.40;99.90;;;;;;5089364;28;20024;-49
2021/04/11 00:12:24;;;;;;;68.15;42.65;;;7.40;99.90;;;;;;5089163;28;20382;-52
2021/04/11 00:14:50;;;;;;;63.70;40.92;;;7.50;99.90;;;;;;5088942;28;20025;-52
2021/04/11 00:17:16;;;;;;;65.63;40.67;;;7.40;99.90;;;;;;5088521;28;20677;-51
2021/04/11 00:19:41;;;;;;;68.32;42.88;;;7.40;99.90;;;;;;5088522;28;20035;-49
2021/04/11 00:22:07;;;;;;;69.60;42.85;;;7.40;99.90;;;;;;5088740;28;20469;-51
2021/04/11 00:24:32;;;;;;;62.42;42.03;;;7.40;99.90;;;;;;5083404;28;20032;-51
2021/04/11 00:26:58;;;;;;;63.15;39.45;;;7.40;99.90;;;;;;5067265;28;20131;-48
2021/04/11 00:29:23;;;;;;;68.53;43.05;;;7.40;99.90;;;;;;5068307;28;20119;-51
2021/04/11 00:31:49;;;;;;;66.50;42.58;;;7.50;99.90;;;;;;5068170;28;20051;-52
2021/04/11 00:34:14;;;;;;;64.38;42.70;;;7.50;99.90;;;;;;5068449;28;20056;-48
2021/04/11 00:36:40;;;;;;;70.22;44.25;;;7.50;99.90;;;;;;5083883;28;20035;-49
2021/04/11 00:39:06;;;;;;;73.07;45.53;;;7.50;99.90;;;;;;5067758;28;20036;-51
2021/04/11 00:41:35;;;;;;;71.40;45.95;;;7.50;99.90;;;;;;5085949;28;20019;-50
2021/04/11 00:44:03;;;;;;;71.65;46.33;;;7.50;99.90;;;;;;5088509;28;20389;-48
2021/04/11 00:46:47;;;;;;;73.90;48.55;;;7.50;99.90;;;;;;5070243;28;20567;-50
2021/04/11 00:49:21;;;;;;;76.15;47.88;;;7.50;99.90;;;;;;5087702;28;20024;-52
2021/04/11 00:51:46;;;;;;;75.45;46.75;;;7.50;99.90;;;;;;5088262;28;20063;-52
2021/04/11 00:54:13;;;;;;;74.40;46.95;;;7.50;99.90;;;;;;5088386;28;20055;-52
2021/04/11 00:56:39;;;;;;;82.05;49.63;;;7.50;99.90;;;;;;5088414;28;20046;-51
2021/04/11 00:59:07;;;;;;;89.82;51.15;;;7.50;99.90;;;;;;5087588;28;20028;-52
2021/04/11 01:01:34;;;;;;;81.18;50.50;;;7.50;99.90;;;;;;5088206;28;20028;-52
2021/04/11 01:03:59;;;;;;;79.60;49.13;;;7.50;99.90;;;;;;5087174;28;20388;-52
2021/04/11 01:06:40;;;;;;;81.18;51.55;;;7.50;99.90;;;;;;5088073;28;20032;-52
2021/04/11 01:09:29;;;;;;;86.68;50.92;;;7.50;99.90;;;;;;5087722;28;20028;-50
2021/04/11 01:11:57;;;;;;;90.25;52.33;;;7.50;99.90;;;;;;5087630;28;20032;-52
2021/04/11 01:14:23;;;;;;;95.57;55.47;;;7.60;99.90;;;;;;5088113;28;20048;-51
2021/04/11 01:16:49;;;;;;;88.15;53.70;;;7.60;99.90;;;;;;5087673;28;20028;-51
2021/04/11 01:19:21;;;;;;;86.57;53.33;;;7.60;99.90;;;;;;5086661;28;20569;-51
2021/04/11 01:21:56;;;;;;;96.68;54.17;;;7.50;99.90;;;;;;5087786;28;20028;-50
2021/04/11 01:24:46;;;;;;;91.22;55.15;;;7.60;99.90;;;;;;5088025;28;20024;-49
2021/04/11 01:27:18;;;;;;;84.77;53.07;;;7.60;99.90;;;;;;5072175;28;20474;-48
2021/04/11 01:29:45;;;;;;;90.78;55.65;;;7.50;99.90;;;;;;5067289;28;20253;-49
2021/04/11 01:32:13;;;;;;;102.03;57.15;;;7.50;99.90;;;;;;5067098;28;20017;-48
2021/04/11 01:34:42;;;;;;;96.35;57.75;;;7.60;99.90;;;;;;5066803;28;20119;-49
2021/04/11 01:37:10;;;;;;;96.00;57.80;;;7.50;99.90;;;;;;5066897;28;20047;-51
2021/04/11 01:39:41;;;;;;;101.85;58.53;;;7.60;99.90;;;;;;5067970;28;20066;-50
2021/04/11 01:42:09;;;;;;;100.75;56.33;;;7.60;99.90;;;;;;5068793;28;20554;-51
2021/04/11 01:44:39;;;;;;;99.70;58.00;;;7.60;99.90;;;;;;5087243;28;20118;-51
2021/04/11 01:47:06;;;;;;;91.78;57.80;;;7.60;99.90;;;;;;5083269;28;20032;-48
2021/04/11 01:49:31;;;;;;;96.82;58.88;;;7.50;99.90;;;;;;5086457;28;20020;-49
2021/04/11 01:52:08;;;;;;;107.10;60.75;;;7.60;99.90;;;;;;5087000;28;20038;-49
2021/04/11 01:54:35;;;;;;;100.22;58.97;;;7.60;99.90;;;;;;5087330;28;20105;-51
2021/04/11 01:57:18;;;;;;;105.00;61.55;;;7.50;99.90;;;;;;5086458;28;20481;-51
2021/04/11 01:59:44;;;;;;;102.10;59.78;;;7.50;99.90;;;;;;5068949;28;20031;-51
2021/04/11 02:02:14;;;;;;;99.50;58.60;;;7.60;99.90;;;;;;5086838;28;20028;-51
2021/04/11 02:04:39;;;;;;;100.00;58.05;;;7.50;99.90;;;;;;5087079;28;20011;-50
2021/04/11 02:07:07;;;;;;;106.10;59.30;;;7.50;99.90;;;;;;5068484;28;20035;-52
2021/04/11 02:09:37;;;;;;;104.63;60.22;;;7.60;99.90;;;;;;5085317;28;20024;-51
2021/04/11 02:12:06;;;;;;;109.72;63.38;;;7.60;99.90;;;;;;5061073;28;20020;-51
2021/04/11 02:14:36;;;;;;;117.85;66.30;;;7.60;99.90;;;;;;5086751;28;20074;-52
2021/04/11 02:17:01;;;;;;;108.70;64.68;;;7.60;99.90;;;;;;5069036;28;20020;-52
2021/04/11 02:19:28;;;;;;;105.47;60.72;;;7.60;99.90;;;;;;5086094;28;20028;-51
2021/04/11 02:21:59;;;;;;;113.78;65.70;;;7.60;99.90;;;;;;5086825;28;20028;-50
2021/04/11 02:24:25;;;;;;;108.78;64.38;;;7.60;99.90;;;;;;5090826;28;20085;-48
2021/04/11 02:26:51;;;;;;;112.53;64.15;;;7.60;99.90;;;;;;5087847;28;20029;-51
2021/04/11 02:29:20;;;;;;;110.90;64.72;;;7.60;99.90;;;;;;5070623;28;20052;-50
2021/04/11 02:31:46;;;;;;;115.63;65.25;;;7.60;99.90;;;;;;5070904;28;20027;-51
2021/04/11 02:34:19;;;;;;;109.15;63.97;;;7.70;99.90;;;;;;5070311;28;20501;-49
2021/04/11 02:36:51;;;;;;;115.93;65.53;;;7.60;99.90;;;;;;5052730;28;20056;-52
2021/04/11 02:39:20;;;;;;;118.13;68.70;;;7.70;99.90;;;;;;5068998;28;20036;-52
2021/04/11 02:41:47;;;;;;;116.43;66.95;;;7.70;99.90;;;;;;5090131;28;20052;-51
2021/04/11 02:44:13;;;;;;;107.65;65.18;;;7.60;99.90;;;;;;5090730;28;20388;-51
2021/04/11 02:46:40;;;;;;;121.22;68.07;;;7.60;99.90;;;;;;5090624;28;20028;-51
2021/04/11 02:49:09;;;;;;;116.05;67.07;;;7.60;99.90;;;;;;5089171;28;20059;-51
2021/04/11 02:51:36;;;;;;;118.65;67.82;;;7.70;99.90;;;;;;5071688;28;20111;-50
2021/04/11 02:54:03;;;;;;;123.45;69.72;;;7.70;99.90;;;;;;5089970;28;20482;-52
2021/04/11 02:56:29;;;;;;;116.65;68.55;;;7.70;99.90;;;;;;5090186;28;20031;-51
2021/04/11 02:58:55;;;;;;;122.70;72.28;;;7.70;99.90;;;;;;5089638;28;20282;-50
2021/04/11 03:01:29;;;;;;;117.18;68.80;;;7.70;99.90;;;;;;5090588;28;20059;-51
2021/04/11 03:03:56;;;;;;;118.75;71.22;;;7.70;99.90;;;;;;5089976;28;20145;-52
2021/04/11 03:06:25;;;;;;;126.65;73.20;;;7.70;99.90;;;;;;5090248;28;20107;-51
2021/04/11 03:08:57;;;;;;;123.13;73.13;;;7.80;99.90;;;;;;5089224;28;20493;-49
2021/04/11 03:11:42;;;;;;;122.65;70.07;;;7.90;99.90;;;;;;5090077;28;20034;-49
2021/04/11 03:14:11;;;;;;;118.63;70.22;;;7.90;99.90;;;;;;5071645;28;20023;-50
2021/04/11 03:16:38;;;;;;;123.88;72.80;;;7.90;99.90;;;;;;5089698;28;20020;-50
2021/04/11 03:19:04;;;;;;;122.15;71.18;;;7.90;99.90;;;;;;5089115;28;20127;-50
2021/04/11 03:21:30;;;;;;;130.82;73.20;;;8.00;99.90;;;;;;5089951;28;20042;-50
2021/04/11 03:23:58;;;;;;;124.28;70.53;;;8.00;99.90;;;;;;5081152;28;20024;-48
2021/04/11 03:26:36;;;;;;;115.50;68.13;;;7.90;99.90;;;;;;5085567;28;20103;-49
2021/04/11 03:29:11;;;;;;;118.43;69.20;;;7.90;99.90;;;;;;5046484;28;20056;-51
2021/04/11 03:31:45;;;;;;;117.93;71.57;;;7.90;99.90;;;;;;5072882;28;20028;-51
2021/04/11 03:34:12;;;;;;;120.82;73.35;;;7.90;99.90;;;;;;5082939;28;20089;-51
2021/04/11 03:36:41;;;;;;;124.85;71.97;;;7.90;99.90;;;;;;5084821;28;20030;-51
2021/04/11 03:39:08;;;;;;;130.82;73.50;;;7.90;99.90;;;;;;5084730;28;20093;-50
2021/04/11 03:41:37;;;;;;;135.20;77.70;;;8.00;99.90;;;;;;5083239;28;20028;-49
2021/04/11 03:44:10;;;;;;;126.30;74.75;;;8.00;99.90;;;;;;5060639;28;20464;-52
2021/04/11 03:46:44;;;;;;;122.38;75.25;;;8.10;99.90;;;;;;5069504;28;20070;-51
2021/04/11 03:49:29;;;;;;;132.77;76.50;;;8.00;99.90;;;;;;5087987;28;20496;-51
2021/04/11 03:51:59;;;;;;;135.43;76.97;;;7.90;99.90;;;;;;5087163;28;20517;-51
2021/04/11 03:54:30;;;;;;;134.75;77.22;;;7.90;99.90;;;;;;5089075;28;20050;-51
2021/04/11 03:57:32;;;;;;;135.13;78.18;;;7.90;99.90;;;;;;5088849;28;20043;-50
2021/04/11 04:00:10;;;;;;;133.75;77.43;;;8.00;99.90;;;;;;5029140;28;20058;-49
2021/04/11 04:02:42;;;;;;;137.55;78.47;;;8.00;99.90;;;;;;5089459;28;20035;-51
2021/04/11 04:05:10;;;;;;;145.50;81.20;;;8.00;99.90;;;;;;5088985;28;20032;-50
2021/04/11 04:07:45;;;;;;;144.82;82.00;;;8.00;99.90;;;;;;5070602;28;20099;-48
2021/04/11 04:10:12;;;;;;;135.20;78.28;;;8.00;99.90;;;;;;5070454;28;20024;-51
2021/04/11 04:13:06;;;;;;;132.45;78.57;;;7.90;99.90;;;;;;5088522;28;20020;-48
2021/04/11 04:15:53;;;;;;;134.68;77.57;;;7.90;99.90;;;;;;5087761;28;20237;-48
2021/04/11 04:18:48;;;;;;;137.13;79.43;;;7.90;99.90;;;;;;5088457;28;20020;-51
2021/04/11 04:21:32;;;;;;;143.80;79.25;;;8.00;99.90;;;;;;5038855;28;20055;-49
2021/04/11 04:24:21;;;;;;;145.85;83.68;;;7.90;99.90;;;;;;5068575;28;20025;-51
2021/04/11 04:26:57;;;;;;;150.95;84.22;;;7.90;99.90;;;;;;5068727;28;20027;-51
2021/04/11 04:29:22;;;;;;;157.13;84.03;;;7.90;99.90;;;;;;5071951;28;20397;-48
2021/04/11 04:31:48;;;;;;;146.73;83.78;;;7.90;99.90;;;;;;5066539;28;20307;-47
2021/04/11 04:34:28;;;;;;;149.68;82.18;;;7.90;99.90;;;;;;5068256;28;20044;-47
2021/04/11 04:37:06;;;;;;;145.82;83.30;;;7.90;99.90;;;;;;5067793;28;20409;-48
2021/04/11 04:40:04;;;;;;;141.68;84.13;;;7.90;99.90;;;;;;5070950;28;20024;-51
2021/04/11 04:42:52;;;;;;;153.05;84.43;;;7.90;99.90;;;;;;5083234;28;20253;-51
2021/04/11 04:45:30;;;;;;;145.00;80.72;;;8.00;99.90;;;;;;5087834;28;20028;-49
2021/04/11 04:48:13;;;;;;;136.65;77.45;;;8.00;99.90;;;;;;5087873;28;20031;-49
2021/04/11 04:51:12;;;;;;;141.68;83.25;;;8.00;99.90;;;;;;5087838;28;20032;-49
2021/04/11 04:53:58;;;;;;;141.35;80.57;;;8.00;99.90;;;;;;5088377;28;20024;-49
2021/04/11 04:56:33;;;;;;;147.93;82.10;;;8.00;99.90;;;;;;5088245;28;20024;-51
2021/04/11 04:59:04;;;;;;;147.02;81.28;;;8.00;99.90;;;;;;5087521;28;20020;-51
2021/04/11 05:01:46;;;;;;;148.07;81.88;;;8.00;99.90;;;;;;5088312;28;20028;-50
2021/04/11 05:04:24;;;;;;;141.02;79.50;;;8.00;99.90;;;;;;5088094;28;20130;-51
2021/04/11 05:06:59;;;;;;;146.18;79.80;;;8.10;99.90;;;;;;5087721;28;20024;-52
2021/04/11 05:09:48;;;;;;;132.55;77.82;;;8.10;99.90;;;;;;5084071;28;20085;-51
2021/04/11 05:12:20;;;;;;;142.52;80.03;;;8.10;99.90;;;;;;5080752;28;20408;-50
2021/04/11 05:14:54;;;;;;;138.82;78.60;;;8.10;99.90;;;;;;5085223;28;20023;-51
2021/04/11 05:17:29;;;;;;;140.05;78.70;;;8.20;99.90;;;;;;5087428;28;20428;-51
2021/04/11 05:20:25;;;;;;;127.57;75.22;;;8.20;99.90;;;;;;5087759;28;20032;-52
2021/04/11 05:23:22;;;;;;;128.02;75.97;;;8.10;99.90;;;;;;5076107;28;20063;-51
2021/04/11 05:25:53;;;;;;;131.55;76.00;;;8.10;99.90;;;;;;5087310;28;20536;-52
2021/04/11 05:28:37;;;;;;;133.07;76.40;;;8.10;99.90;;;;;;5087372;28;20386;-51
2021/04/11 05:31:13;;;;;;;135.80;76.57;;;8.10;99.90;;;;;;5078475;28;20020;-51
2021/04/11 05:33:40;;;;;;;132.88;76.72;;;8.20;99.90;;;;;;5052203;28;20489;-50
2021/04/11 05:36:47;;;;;;;122.15;72.53;;;8.20;99.90;;;;;;5068072;28;20136;-50
2021/04/11 05:39:49;;;;;;;131.93;72.88;;;8.20;99.90;;;;;;5057487;28;20040;-49
2021/04/11 05:42:18;;;;;;;126.95;72.18;;;8.30;99.90;;;;;;5087628;28;20183;-49
2021/04/11 05:44:59;;;;;;;127.35;74.18;;;8.30;99.90;;;;;;5083420;28;20024;-51
2021/04/11 05:47:45;;;;;;;125.95;73.60;;;8.30;99.90;;;;;;5082708;28;20031;-50
2021/04/11 05:50:14;;;;;;;114.93;68.28;;;8.40;99.90;;;;;;5079637;28;20453;-51
2021/04/11 05:52:53;;;;;;;117.07;70.53;;;8.50;99.90;;;;;;5079932;28;20389;-51
2021/04/11 05:55:21;;;;;;;114.38;66.75;;;8.50;99.90;;;;;;5087293;28;20223;-50
2021/04/11 05:57:51;;;;;;;113.50;67.60;;;8.50;99.90;;;;;;5086685;28;20020;-49
2021/04/11 06:00:22;;;;;;;112.15;66.13;;;8.50;99.90;;;;;;5087408;28;20035;-51
2021/04/11 06:02:53;;;;;;;108.07;66.88;;;8.50;99.90;;;;;;5088112;28;20028;-51
2021/04/11 06:05:37;;;;;;;113.10;66.47;;;8.70;99.90;;;;;;5087393;28;20524;-52
2021/04/11 06:08:28;;;;;;;106.63;63.45;;;8.70;99.90;;;;;;5086242;28;20042;-48
2021/04/11 06:11:10;;;;;;;103.47;63.58;;;8.70;99.90;;;;;;5085852;28;20355;-51
2021/04/11 06:13:58;;;;;;;112.35;64.15;;;8.80;99.90;;;;;;5086992;28;20028;-48
2021/04/11 06:16:26;;;;;;;97.28;60.45;;;8.90;99.90;;;;;;5086881;28;20523;-49
2021/04/11 06:18:54;;;;;;;108.80;63.55;;;8.90;99.90;;;;;;5086946;28;20028;-50
2021/04/11 06:21:47;;;;;;;96.72;61.17;;;8.90;99.90;;;;;;5086933;28;20077;-48
2021/04/11 06:24:43;;;;;;;97.88;59.67;;;8.80;99.90;;;;;;5086641;28;20112;-48
2021/04/11 06:27:39;;;;;;;91.20;56.78;;;8.90;99.90;;;;;;5086907;28;20630;-49
2021/04/11 06:30:31;;;;;;;91.72;56.60;;;9.00;99.90;;;;;;5086727;28;20108;-50
2021/04/11 06:33:38;;;;;;;87.38;55.53;;;9.00;99.90;;;;;;5073817;28;20111;-49
2021/04/11 06:36:09;;;;;;;91.45;57.80;;;9.00;99.90;;;;;;5060143;28;20033;-51
2021/04/11 06:38:45;;;;;;;82.45;53.17;;;9.10;99.90;;;;;;5082231;28;20039;-52
2021/04/11 06:41:39;;;;;;;79.22;50.63;;;9.10;99.90;;;;;;5086554;28;20537;-52
2021/04/11 06:44:38;;;;;;;80.70;50.88;;;9.20;99.90;;;;;;5086892;28;20115;-52
2021/04/11 06:47:25;;;;;;;77.38;48.75;;;9.40;99.90;;;;;;5086668;28;20082;-51
2021/04/11 06:50:15;;;;;;;77.78;50.60;;;9.40;99.90;;;;;;5086225;28;20032;-51
2021/04/11 06:52:51;;;;;;;75.97;46.67;;;9.70;99.90;;;;;;5079492;28;20021;-49
2021/04/11 06:55:30;;;;;;;62.78;43.50;;;9.80;99.90;;;;;;5086381;28;20533;-52
2021/04/11 06:58:13;;;;;;;70.15;45.17;;;9.90;99.90;;;;;;5085180;28;20298;-52
2021/04/11 07:01:05;;;;;;;60.42;40.42;;;10.00;99.90;;;;;;5087001;28;20056;-53
2021/04/11 07:03:59;;;;;;;62.45;40.78;;;10.20;99.90;;;;;;5086406;28;20104;-52
2021/04/11 07:06:49;;;;;;;53.25;38.13;;;10.50;99.90;;;;;;5085903;28;20244;-49
2021/04/11 07:09:41;;;;;;;52.30;35.83;;;10.60;99.90;;;;;;5068036;28;20558;-52
2021/04/11 07:12:44;;;;;;;50.08;34.55;;;10.70;99.90;;;;;;5084444;28;20377;-53
2021/04/11 07:15:13;;;;;;;51.58;35.63;;;10.90;99.90;;;;;;5089437;28;20016;-55
2021/04/11 07:18:06;;;;;;;48.35;34.55;;;11.20;99.90;;;;;;5089954;28;20456;-55
2021/04/11 07:21:20;;;;;;;42.10;31.00;;;11.50;99.90;;;;;;5090437;28;20052;-56
2021/04/11 07:24:17;;;;;;;42.08;29.23;;;11.60;99.90;;;;;;5076678;28;20121;-56
2021/04/11 07:26:55;;;;;;;43.50;31.02;;;11.70;99.90;;;;;;5098397;28;20042;-55
2021/04/11 07:29:44;;;;;;;39.75;28.35;;;11.80;99.90;;;;;;5077165;28;20489;-55
2021/04/11 07:32:22;;;;;;;34.75;26.65;;;11.70;99.90;;;;;;5050962;28;20099;-54
2021/04/11 07:35:00;;;;;;;36.38;27.85;;;11.60;99.90;;;;;;5075301;28;20375;-54
2021/04/11 07:37:52;;;;;;;39.72;27.27;;;11.60;99.90;;;;;;5068686;28;20405;-54
2021/04/11 07:40:43;;;;;;;37.15;26.83;;;11.60;99.90;;;;;;5069908;28;20064;-55
2021/04/11 07:43:24;;;;;;;39.30;27.23;;;11.60;99.90;;;;;;5069306;28;20506;-55
2021/04/11 07:46:07;;;;;;;34.95;25.50;;;11.70;99.90;;;;;;5069021;28;20551;-54
2021/04/11 07:49:03;;;;;;;36.80;26.17;;;11.70;99.90;;;;;;5068590;28;20047;-55
2021/04/11 07:51:42;;;;;;;34.90;25.10;;;11.90;99.90;;;;;;5069092;28;20032;-54
2021/04/11 07:54:37;;;;;;;30.17;23.13;;;11.90;99.90;;;;;;5068589;28;20029;-55
2021/04/11 07:57:40;;;;;;;33.08;22.23;;;12.00;99.90;;;;;;5068579;28;20032;-52
2021/04/11 08:00:12;;;;;;;30.05;21.95;;;12.20;99.90;;;;;;5068982;28;20115;-54
2021/04/11 08:03:12;;;;;;;27.80;19.52;;;12.50;99.90;;;;;;5069305;28;20021;-55
2021/04/11 08:06:09;;;;;;;29.00;20.33;;;12.90;99.90;;;;;;5051462;28;20024;-55
2021/04/11 08:08:49;;;;;;;24.30;17.48;;;13.40;99.90;;;;;;5035663;28;20040;-55
2021/04/11 08:11:47;;;;;;;25.38;16.52;;;13.70;99.90;;;;;;5076044;28;20111;-54
2021/04/11 08:14:38;;;;;;;25.10;16.50;;;13.60;99.90;;;;;;5088698;28;20108;-54
2021/04/11 08:17:12;;;;;;;22.70;15.95;;;13.70;99.90;;;;;;5089014;28;20105;-55
2021/04/11 08:20:19;;;;;;;19.85;14.63;;;13.90;99.90;;;;;;5088073;28;20027;-55
2021/04/11 08:23:14;;;;;;;18.83;15.20;;;13.90;99.90;;;;;;5088621;28;20036;-54
2021/04/11 08:26:04;;;;;;;19.25;14.02;;;14.20;99.90;;;;;;5089711;28;20042;-54
2021/04/11 08:28:54;;;;;;;19.83;12.70;;;14.40;99.90;;;;;;5088960;28;20031;-55
2021/04/11 08:31:40;;;;;;;15.68;12.70;;;14.50;99.90;;;;;;5088895;28;20036;-54
2021/04/11 08:34:45;;;;;;;19.90;13.30;;;14.70;99.90;;;;;;5084918;28;20035;-54
2021/04/11 08:37:29;;;;;;;19.05;14.20;;;14.90;99.90;;;;;;5067315;28;20043;-54
2021/04/11 08:40:24;;;;;;;16.42;14.05;;;14.90;99.90;;;;;;5068374;28;20021;-53
2021/04/11 08:42:49;;;;;;;18.90;14.38;;;14.80;99.90;;;;;;5088736;28;20535;-53
2021/04/11 08:45:45;;;;;;;20.73;15.18;;;15.10;99.90;;;;;;5088490;28;20020;-53
2021/04/11 08:48:44;;;;;;;16.80;13.80;;;15.00;99.90;;;;;;5069735;28;20020;-52
2021/04/11 08:51:17;;;;;;;19.52;13.52;;;14.90;99.90;;;;;;5087827;28;20028;-52
2021/04/11 08:53:55;;;;;;;18.40;13.68;;;14.70;99.90;;;;;;5088809;28;20129;-52
2021/04/11 08:56:40;;;;;;;17.70;13.90;;;14.50;99.90;;;;;;5088027;28;20019;-52
2021/04/11 08:59:40;;;;;;;19.98;14.65;;;14.50;99.90;;;;;;5087909;28;20036;-54
2021/04/11 09:02:28;;;;;;;16.48;13.07;;;14.50;99.90;;;;;;5088349;28;20032;-54
2021/04/11 09:05:16;;;;;;;16.67;12.85;;;14.70;99.90;;;;;;5087858;28;20036;-53
2021/04/11 09:08:00;;;;;;;13.82;11.80;;;15.00;99.90;;;;;;5087048;28;20036;-52
2021/04/11 09:10:34;;;;;;;13.65;10.32;;;15.10;99.90;;;;;;5087193;28;20036;-52
2021/04/11 09:13:31;;;;;;;12.80;8.13;;;15.30;99.90;;;;;;5087379;28;20503;-53
2021/04/11 09:16:09;;;;;;;9.18;7.53;;;15.50;99.90;;;;;;5080164;28;20053;-53
2021/04/11 09:19:00;;;;;;;12.40;7.35;;;15.80;99.90;;;;;;5087347;28;20278;-52
2021/04/11 09:21:39;;;;;;;11.52;7.22;;;16.20;99.90;;;;;;5087566;28;20374;-54
2021/04/11 09:24:16;;;;;;;10.57;7.70;;;16.00;99.90;;;;;;5087517;28;20478;-53
2021/04/11 09:26:42;;;;;;;11.20;6.93;;;15.70;99.90;;;;;;5087915;28;20039;-55
2021/04/11 09:29:33;;;;;;;10.50;7.45;;;15.30;99.90;;;;;;5085838;28;20393;-52
2021/04/11 09:32:10;;;;;;;11.90;8.18;;;15.10;99.90;;;;;;5087687;28;20020;-53
2021/04/11 09:34:54;;;;;;;15.27;8.73;;;15.30;99.90;;;;;;5087379;28;20028;-55
2021/04/11 09:37:59;;;;;;;12.90;9.20;;;15.30;99.90;;;;;;5064881;28;20466;-53
2021/04/11 09:41:05;;;;;;;12.43;8.55;;;15.20;99.90;;;;;;5082567;28;20031;-53
2021/04/11 09:43:52;;;;;;;12.43;8.45;;;15.30;99.90;;;;;;5087340;28;20103;-52
2021/04/11 09:46:37;;;;;;;12.00;8.45;;;15.30;99.90;;;;;;5087186;28;20032;-53
2021/04/11 09:49:34;;;;;;;12.13;8.15;;;15.20;99.90;;;;;;5086605;28;20047;-52
2021/04/11 09:52:40;;;;;;;10.02;7.53;;;15.20;99.90;;;;;;5087184;28;20012;-52
2021/04/11 09:55:27;;;;;;;12.95;7.55;;;15.20;99.90;;;;;;5086915;28;20378;-56
2021/04/11 09:58:22;;;;;;;12.10;7.50;;;15.10;99.90;;;;;;5086478;28;20149;-53
2021/04/11 10:01:13;;;;;;;10.45;7.00;;;15.00;99.90;;;;;;5087166;28;20058;-53
2021/04/11 10:04:10;;;;;;;12.32;6.72;;;14.90;99.90;;;;;;5087478;28;20016;-52
2021/04/11 10:07:03;;;;;;;10.13;5.97;;;14.60;99.90;;;;;;5087555;28;20039;-53
2021/04/11 10:09:48;;;;;;;15.90;5.75;;;14.30;99.90;;;;;;5086759;28;20490;-53
2021/04/11 10:12:34;;;;;;;13.57;5.50;;;14.10;99.90;;;;;;5087191;28;20020;-52
2021/04/11 10:15:12;;;;;;;7.45;5.13;;;13.90;99.90;;;;;;5086739;28;20020;-52
2021/04/11 10:18:08;;;;;;;7.93;5.32;;;13.90;99.90;;;;;;5086313;28;20025;-52
2021/04/11 10:20:51;;;;;;;9.75;4.93;;;13.80;99.90;;;;;;5086702;28;20157;-52
2021/04/11 10:23:44;;;;;;;6.30;4.57;;;13.50;99.90;;;;;;5087411;28;20385;-52
2021/04/11 10:26:24;;;;;;;8.60;5.18;;;13.50;99.90;;;;;;5086730;28;20068;-53
2021/04/11 10:28:58;;;;;;;7.55;5.07;;;13.60;99.90;;;;;;5087048;28;20477;-52
2021/04/11 10:31:26;;;;;;;9.25;4.85;;;13.60;99.90;;;;;;5087186;28;20036;-53
2021/04/11 10:34:06;;;;;;;10.20;5.60;;;13.60;99.90;;;;;;5086840;28;20081;-52
2021/04/11 10:37:05;;;;;;;6.85;5.03;;;13.80;99.90;;;;;;5065319;28;20020;-52
2021/04/11 10:40:28;;;;;;;9.73;5.38;;;13.90;99.90;;;;;;5076284;28;20032;-53
2021/04/11 10:43:14;;;;;;;9.32;5.60;;;14.20;99.90;;;;;;4984423;28;20522;-52
2021/04/11 10:46:01;;;;;;;8.90;6.50;;;14.40;99.90;;;;;;4988454;28;20078;-52
2021/04/11 10:48:48;;;;;;;8.00;6.28;;;14.30;99.90;;;;;;4988129;28;20034;-53
2021/04/11 10:51:17;;;;;;;11.38;7.70;;;14.20;99.90;;;;;;5044161;28;20043;-52
2021/04/11 10:54:18;;;;;;;13.50;7.68;;;14.10;99.90;;;;;;5089537;28;20024;-53
2021/04/11 10:57:27;;;;;;;12.05;8.00;;;14.10;99.90;;;;;;5090281;28;20452;-53
2021/04/11 11:00:10;;;;;;;9.13;7.13;;;13.90;99.90;;;;;;5090216;28;20508;-52
2021/04/11 11:03:21;;;;;;;10.90;7.38;;;14.30;99.90;;;;;;5091241;28;20028;-55
2021/04/11 11:06:05;;;;;;;11.20;7.55;;;16.30;99.90;;;;;;5090642;28;20024;-52
2021/04/11 11:08:56;;;;;;;9.30;7.47;;;17.00;99.90;;;;;;5090019;28;20028;-54
2021/04/11 11:11:40;;;;;;;14.07;8.20;;;16.80;99.80;;;;;;5043556;28;20032;-53
2021/04/11 11:14:24;;;;;;;11.35;7.82;;;17.00;99.00;;;;;;5090005;28;20447;-55
2021/04/11 11:17:04;;;;;;;7.75;6.90;;;16.80;99.90;;;;;;5090098;28;20036;-55
2021/04/11 11:19:48;;;;;;;9.55;6.70;;;16.80;99.90;;;;;;5071278;28;20020;-54
2021/04/11 11:22:43;;;;;;;10.13;7.07;;;16.70;99.90;;;;;;5090662;28;20024;-54
2021/04/11 11:25:44;;;;;;;12.93;8.60;;;16.50;99.90;;;;;;5089525;28;20497;-54
2021/04/11 11:28:35;;;;;;;8.13;7.00;;;15.80;99.90;;;;;;5089764;28;20132;-54
2021/04/11 11:31:29;;;;;;;12.10;8.07;;;15.40;99.90;;;;;;5089762;28;20462;-54
2021/04/11 11:34:05;;;;;;;10.13;7.47;;;14.80;99.90;;;;;;5089928;28;20024;-52
2021/04/11 11:36:57;;;;;;;11.98;7.10;;;14.60;99.90;;;;;;5090100;28;20024;-53
2021/04/11 11:39:37;;;;;;;11.38;7.55;;;14.30;99.90;;;;;;5074619;28;22214;-54
2021/04/11 11:42:08;;;;;;;8.88;7.88;;;14.00;99.90;;;;;;5069375;28;20056;-52
2021/04/11 11:44:40;;;;;;;14.77;8.50;;;14.00;99.90;;;;;;5069848;28;20029;-53
2021/04/11 11:47:17;;;;;;;12.68;8.32;;;13.90;99.90;;;;;;5069294;28;20283;-53
2021/04/11 11:49:53;;;;;;;11.48;8.98;;;13.70;99.90;;;;;;5069071;28;20120;-53
2021/04/11 11:52:44;;;;;;;18.42;8.77;;;13.50;99.90;;;;;;5069782;28;20043;-53
2021/04/11 11:55:25;;;;;;;13.50;9.43;;;13.40;99.90;;;;;;5069135;28;20489;-53
2021/04/11 11:58:03;;;;;;;12.77;9.30;;;13.40;99.90;;;;;;5068687;28;20415;-53
2021/04/11 12:00:37;;;;;;;16.08;8.32;;;13.30;99.90;;;;;;5069332;28;20477;-53
2021/04/11 12:03:24;;;;;;;9.25;7.20;;;13.40;99.90;;;;;;5069757;28;20064;-53
2021/04/11 12:06:04;;;;;;;13.15;8.07;;;13.40;99.90;;;;;;5051147;28;20021;-53
2021/04/11 12:08:58;;;;;;;12.57;7.17;;;13.50;99.90;;;;;;5068935;28;20047;-53
2021/04/11 12:11:41;;;;;;;9.30;8.15;;;13.40;99.90;;;;;;5086873;28;20077;-53
2021/04/11 12:14:18;;;;;;;11.55;9.85;;;13.30;99.90;;;;;;5082571;28;20024;-52
2021/04/11 12:17:03;;;;;;;15.00;8.73;;;13.30;99.90;;;;;;5088673;28;20130;-52
2021/04/11 12:19:46;;;;;;;9.73;7.72;;;13.10;99.90;;;;;;5068307;28;20056;-52
2021/04/11 12:22:23;;;;;;;9.45;6.30;;;12.90;99.90;;;;;;5069113;28;20032;-53
2021/04/11 12:25:18;;;;;;;7.32;5.25;;;13.10;99.90;;;;;;5069896;28;20035;-53
2021/04/11 12:27:45;;;;;;;6.15;5.35;;;13.20;99.90;;;;;;5072590;28;20059;-52
2021/04/11 12:30:28;;;;;;;6.43;5.18;;;13.40;99.90;;;;;;5090015;28;20032;-52
2021/04/11 12:33:07;;;;;;;7.20;4.15;;;13.40;99.90;;;;;;5090183;28;20030;-52
2021/04/11 12:36:02;;;;;;;8.07;4.80;;;13.40;99.90;;;;;;5090362;28;20032;-52
2021/04/11 12:38:41;;;;;;;6.82;4.10;;;13.20;99.90;;;;;;5089320;28;20053;-52
2021/04/11 12:41:33;;;;;;;4.18;3.78;;;13.00;99.90;;;;;;5081036;28;20401;-52
2021/04/11 12:44:17;;;;;;;4.38;3.95;;;12.70;99.90;;;;;;5089703;28;20107;-52
2021/04/11 12:46:57;;;;;;;5.25;3.67;;;12.60;99.90;;;;;;5089050;28;20058;-55
2021/04/11 12:49:39;;;;;;;9.60;4.30;;;12.60;99.90;;;;;;5088441;28;20055;-52
2021/04/11 12:52:11;;;;;;;4.75;4.25;;;12.50;99.90;;;;;;5088707;28;20028;-49
2021/04/11 12:54:46;;;;;;;7.82;5.18;;;12.40;99.90;;;;;;5090485;28;20473;-50
2021/04/11 12:57:24;;;;;;;5.07;4.68;;;12.30;99.90;;;;;;5102510;28;20081;-48
2021/04/11 13:00:25;;;;;;;6.32;5.72;;;12.30;99.90;;;;;;5108090;28;20120;-48
2021/04/11 13:03:14;;;;;;;8.80;6.88;;;12.20;99.90;;;;;;5063266;28;20041;-47
2021/04/11 13:05:46;;;;;;;8.50;7.20;;;12.20;99.90;;;;;;5068111;28;20668;-45
2021/04/11 13:08:29;;;;;;;9.85;8.85;;;12.00;99.90;;;;;;5066676;28;20082;-46
2021/04/11 13:10:56;;;;;;;8.05;7.25;;;11.70;99.90;;;;;;5061904;28;20043;-46
2021/04/11 13:13:30;;;;;;;12.90;8.52;;;11.70;99.90;;;;;;5067855;28;20432;-47
2021/04/11 13:16:21;;;;;;;9.95;8.27;;;11.50;99.90;;;;;;5067228;28;20021;-49
2021/04/11 13:19:08;;;;;;;12.73;10.15;;;11.30;99.90;;;;;;5067213;28;20107;-50
2021/04/11 13:22:08;;;;;;;15.68;10.35;;;11.30;99.90;;;;;;5067471;28;20051;-50
2021/04/11 13:25:05;;;;;;;14.15;10.32;;;11.20;99.90;;;;;;5067627;28;20365;-52
2021/04/11 13:27:36;;;;;;;15.48;10.90;;;11.10;99.90;;;;;;5066521;28;20028;-53
2021/04/11 13:30:17;;;;;;;13.18;10.15;;;11.00;99.90;;;;;;5067502;28;20102;-50
2021/04/11 13:32:56;;;;;;;10.77;9.52;;;10.90;99.90;;;;;;5067559;28;20115;-52
2021/04/11 13:35:42;;;;;;;14.68;9.95;;;10.70;99.90;;;;;;5066969;28;20035;-48
2021/04/11 13:38:17;;;;;;;16.05;10.15;;;10.70;99.90;;;;;;5054851;28;20166;-47